.
WxDataArchive / Data Records for 2011-03-24
2011-03-23 March 2011 2011-03-25

Data Records for Thursday, 24 March 2011

Time	Temp	Chill	HIndex	Humid	Dewpt	 Wind 	HiWind	WindDir	Rain 	Barom 
-----	----	-----	------	-----	-----	------	------	-------	-----	----- 
00:00	31.9	31.9	31.9	92	29.8	2	4	112	0.00	29.735 
00:05	31.8	31.8	31.8	92	29.7	1	3	112	0.00	29.735 
00:10	31.8	31.8	31.8	92	29.7	1	4	90	0.00	29.735 
00:15	31.6	31.6	31.6	92	29.5	1	4	68	0.00	29.740 
00:20	31.6	31.6	31.6	92	29.5	1	5	135	0.00	29.740 
00:25	31.6	31.6	31.6	92	29.5	1	4	45	0.00	29.740 
00:30	31.5	31.5	31.5	92	29.4	1	4	45	0.00	29.754 
00:35	31.3	31.3	31.3	92	29.3	1	3	45	0.00	29.754 
00:40	31.2	31.2	31.2	92	29.2	0	2	45	0.00	29.754 
00:45	31.2	31.2	31.2	92	29.2	0	2	45	0.00	29.768 
00:50	31.0	31.0	31.0	92	29.0	0	2	45	0.00	29.768 
00:55	31.0	31.0	31.0	92	29.0	0	2	45	0.00	29.768 
01:00	31.0	31.0	31.0	92	29.0	1	5	45	0.00	29.778 
01:05	30.9	30.9	30.9	92	28.9	1	5	135	0.00	29.778 
01:10	30.7	30.7	30.7	92	28.7	0	4	90	0.00	29.778 
01:15	30.7	30.7	30.7	92	28.7	1	3	112	0.00	29.781 
01:20	30.6	30.6	30.6	92	28.6	1	4	90	0.00	29.781 
01:25	30.6	30.6	30.6	92	28.6	0	2	68	0.00	29.781 
01:30	30.4	30.4	30.4	92	28.4	0	2	68	0.00	29.787 
01:35	30.3	30.3	30.3	92	28.3	1	3	45	0.00	29.787 
01:40	30.1	30.1	30.1	92	28.1	1	3	90	0.00	29.787 
01:45	30.1	30.1	30.1	92	28.1	1	3	135	0.00	29.799 
01:50	30.1	30.1	30.1	92	28.1	1	4	22	0.00	29.799 
01:55	30.0	30.0	30.0	92	28.0	1	2	22	0.00	29.799 
02:00	29.8	29.8	29.8	92	27.8	2	5	112	0.00	29.805 
02:05	29.8	29.8	29.8	92	27.8	1	5	45	0.00	29.805 
02:10	29.7	29.7	29.7	91	27.4	1	5	68	0.00	29.805 
02:15	29.7	29.7	29.7	91	27.4	1	2	22	0.00	29.805 
02:20	29.7	29.7	29.7	91	27.4	1	3	90	0.00	29.805 
02:25	29.7	29.7	29.7	91	27.4	1	3	90	0.00	29.805 
02:30	29.7	29.7	29.7	91	27.4	1	3	68	0.00	29.811 
02:35	29.5	29.5	29.5	91	27.2	1	3	68	0.00	29.811 
02:40	29.5	29.5	29.5	91	27.2	1	3	45	0.00	29.811 
02:45	29.5	29.5	29.5	91	27.2	1	4	45	0.00	29.820 
02:50	29.7	29.7	29.7	91	27.4	0	2	0	0.00	29.820 
02:55	29.5	29.5	29.5	90	26.9	0	4	22	0.00	29.820 
03:00	29.7	29.7	29.7	90	27.1	1	3	68	0.00	29.827 
03:05	29.5	29.5	29.5	90	26.9	2	6	112	0.00	29.827 
03:10	29.5	29.5	29.5	90	26.9	1	4	68	0.00	29.827 
03:15	29.4	29.4	29.4	90	26.8	1	4	45	0.00	29.828 
03:20	29.4	29.4	29.4	90	26.8	1	5	90	0.00	29.828 
03:25	29.3	29.3	29.3	89	26.5	1	3	68	0.00	29.828 
03:30	29.3	29.3	29.3	89	26.5	1	5	68	0.00	29.832 
03:35	29.1	29.1	29.1	89	26.3	1	3	135	0.00	29.832 
03:40	29.1	29.1	29.1	88	26.0	1	4	90	0.00	29.832 
03:45	29.0	29.0	29.0	88	25.9	1	4	90	0.00	29.832 
03:50	29.0	29.0	29.0	88	25.9	1	3	292	0.00	29.832 
03:55	29.0	29.0	29.0	87	25.6	1	5	45	0.00	29.832 
04:00	29.0	29.0	29.0	87	25.6	1	4	68	0.00	29.834 
04:05	29.0	29.0	29.0	87	25.6	2	5	68	0.00	29.834 
04:10	29.0	29.0	29.0	87	25.6	0	4	45	0.00	29.834 
04:15	29.0	29.0	29.0	87	25.6	2	6	112	0.00	29.834 
04:20	29.0	29.0	29.0	87	25.6	1	3	68	0.00	29.834 
04:25	29.0	29.0	29.0	87	25.6	1	3	68	0.00	29.834 
04:30	29.0	29.0	29.0	88	25.9	1	3	68	0.00	29.842 
04:35	29.0	29.0	29.0	88	25.9	1	6	68	0.00	29.842 
04:40	29.0	29.0	29.0	88	25.9	1	3	112	0.00	29.842 
04:45	29.0	29.0	29.0	88	25.9	1	7	22	0.00	29.844 
04:50	29.0	29.0	29.0	88	25.9	1	4	22	0.00	29.844 
04:55	28.8	28.8	28.8	87	25.4	1	4	68	0.00	29.844 
05:00	28.8	28.8	28.8	87	25.4	1	5	45	0.00	29.846 
05:05	28.8	28.8	28.8	87	25.4	1	6	135	0.00	29.846 
05:10	28.7	28.7	28.7	87	25.3	1	6	112	0.00	29.846 
05:15	28.7	28.7	28.7	87	25.3	1	3	68	0.00	29.861 
05:20	28.7	28.7	28.7	87	25.3	1	3	68	0.00	29.861 
05:25	28.7	28.7	28.7	87	25.3	1	2	22	0.00	29.861 
05:30	28.7	28.7	28.7	87	25.3	1	3	135	0.00	29.870 
05:35	28.5	28.5	28.5	86	24.9	2	12	45	0.00	29.870 
05:40	28.4	28.4	28.4	86	24.8	2	5	112	0.00	29.870 
05:45	28.4	28.4	28.4	85	24.5	1	5	90	0.00	29.884 
05:50	28.4	28.4	28.4	84	24.2	1	4	112	0.00	29.884 
05:55	28.2	28.2	28.2	82	23.4	2	6	45	0.00	29.884 
06:00	28.2	28.2	28.2	80	22.8	1	4	90	0.00	29.896 
06:05	28.4	28.4	28.4	80	23.0	1	4	68	0.00	29.896 
06:10	28.4	28.4	28.4	79	22.7	0	2	68	0.00	29.896 
06:15	28.4	28.4	28.4	79	22.7	1	4	68	0.00	29.911 
06:20	28.5	28.5	28.5	78	22.5	1	3	45	0.00	29.911 
06:25	28.5	28.5	28.5	77	22.2	1	4	315	0.00	29.911 
06:30	28.5	28.5	28.5	77	22.2	1	5	45	0.00	29.922 
06:35	28.5	28.5	28.5	77	22.2	0	2	338	0.00	29.922 
06:40	28.5	28.5	28.5	76	21.9	1	4	338	0.00	29.922 
06:45	28.5	28.5	28.5	77	22.2	1	3	90	0.00	29.928 
06:50	28.5	28.5	28.5	77	22.2	1	4	90	0.00	29.928 
06:55	28.7	28.7	28.7	77	22.4	1	4	112	0.00	29.928 
07:00	28.7	28.7	28.7	77	22.4	1	9	0	0.00	29.938 
07:05	28.7	28.7	28.7	77	22.4	0	2	22	0.00	29.938 
07:10	28.7	28.7	28.7	77	22.4	1	5	112	0.00	29.938 
07:15	28.7	28.7	28.7	77	22.4	1	7	112	0.00	29.947 
07:20	28.8	28.8	28.8	77	22.5	1	5	45	0.00	29.947 
07:25	28.8	28.8	28.8	77	22.5	0	2	338	0.00	29.947 
07:30	28.8	28.8	28.8	78	22.8	0	2	338	0.00	29.960 
07:35	28.8	28.8	28.8	78	22.8	0	1	338	0.00	29.960 
07:40	28.8	28.8	28.8	78	22.8	1	6	45	0.00	29.960 
07:45	28.8	28.8	28.8	77	22.5	0	2	112	0.00	29.965 
07:50	28.8	28.8	28.8	77	22.5	1	5	90	0.00	29.965 
07:55	28.8	28.8	28.8	77	22.5	0	3	22	0.00	29.965 
08:00	29.0	29.0	29.0	77	22.7	0	2	45	0.00	29.975 
08:05	29.0	29.0	29.0	77	22.7	0	1	45	0.00	29.975 
08:10	29.0	29.0	29.0	78	23.0	0	1	45	0.00	29.975 
08:15	29.0	29.0	29.0	78	23.0	0	3	45	0.00	29.983 
08:20	29.0	29.0	29.0	79	23.3	0	3	90	0.00	29.983 
08:25	29.0	29.0	29.0	79	23.3	0	4	45	0.00	29.983 
08:30	29.0	29.0	29.0	79	23.3	0	3	292	0.00	29.993 
08:35	29.0	29.0	29.0	79	23.3	0	2	292	0.00	29.993 
08:40	29.1	29.1	29.1	79	23.4	0	2	292	0.00	29.993 
08:45	29.1	29.1	29.1	79	23.4	0	3	292	0.00	30.002 
08:50	29.1	29.1	29.1	78	23.1	1	5	270	0.00	30.002 
08:55	29.1	29.1	29.1	78	23.1	0	2	270	0.00	30.002 
09:00	29.1	29.1	29.1	77	22.8	1	3	270	0.00	30.017 
09:05	29.1	29.1	29.1	77	22.8	0	2	270	0.00	30.017 
09:10	29.1	29.1	29.1	77	22.8	0	4	270	0.00	30.017 
09:15	29.1	29.1	29.1	77	22.8	1	4	315	0.00	30.022 
09:20	29.0	29.0	29.0	76	22.4	1	5	22	0.00	30.022 
09:25	29.0	29.0	29.0	76	22.4	1	4	22	0.00	30.022 
09:30	29.0	29.0	29.0	77	22.7	0	2	22	0.00	30.025 
09:35	29.1	29.1	29.1	76	22.5	1	3	315	0.00	30.025 
09:40	29.1	29.1	29.1	76	22.5	1	4	315	0.00	30.025 
09:45	29.3	29.3	29.3	75	22.4	0	3	68	0.00	30.031 
09:50	29.4	29.4	29.4	75	22.5	0	3	68	0.00	30.031 
09:55	29.4	29.4	29.4	73	21.8	1	3	0	0.00	30.031 
10:00	29.7	29.7	29.7	73	22.1	1	3	292	0.00	30.041 
10:05	30.0	30.0	30.0	73	22.4	0	3	315	0.00	30.041 
10:10	30.0	30.0	30.0	72	22.1	1	4	315	0.00	30.041 
10:15	30.3	30.3	30.3	72	22.4	1	3	338	0.00	30.050 
10:20	30.4	30.4	30.4	71	22.1	1	4	338	0.00	30.050 
10:25	30.6	30.6	30.6	71	22.3	1	3	338	0.00	30.050 
10:30	30.9	30.9	30.9	71	22.6	1	5	315	0.00	30.058 
10:35	31.0	31.0	31.0	71	22.7	2	6	0	0.00	30.058 
10:40	30.7	30.7	30.7	69	21.8	2	6	338	0.00	30.058 
10:45	30.6	30.6	30.6	69	21.7	1	3	0	0.00	30.065 
10:50	31.2	31.2	31.2	69	22.2	1	3	0	0.00	30.065 
10:55	31.5	31.5	31.5	67	21.8	1	4	338	0.00	30.065 
11:00	32.1	32.1	32.1	67	22.4	1	5	315	0.00	30.067 
11:05	32.2	32.2	32.2	66	22.1	1	5	292	0.00	30.067 
11:10	32.7	32.7	32.7	66	22.6	2	4	315	0.00	30.067 
11:15	32.8	32.8	32.8	65	22.3	1	4	248	0.00	30.072 
11:20	32.9	32.9	32.9	64	22.1	1	4	0	0.00	30.072 
11:25	33.2	33.2	33.2	64	22.4	1	4	338	0.00	30.072 
11:30	33.5	33.5	33.5	62	21.9	1	5	338	0.00	30.076 
11:35	33.7	33.7	33.7	62	22.1	1	4	22	0.00	30.076 
11:40	34.3	34.3	34.3	64	23.4	1	4	22	0.00	30.076 
11:45	34.4	34.4	34.4	62	22.7	2	5	338	0.00	30.080 
11:50	34.6	34.6	34.6	60	22.2	2	6	112	0.00	30.080 
11:55	34.7	34.7	34.7	62	23.0	1	3	68	0.01	30.080 
12:00	35.2	35.2	35.2	64	24.3	2	7	45	0.00	30.082 
12:05	35.6	35.6	35.6	62	23.9	1	6	68	0.00	30.082 
12:10	35.9	35.9	35.9	60	23.4	1	5	45	0.00	30.082 
12:15	36.3	36.3	36.3	61	24.2	1	3	68	0.00	30.078 
12:20	36.0	36.0	36.0	62	24.3	1	4	45	0.00	30.078 
12:25	35.6	35.6	35.6	61	23.5	2	5	45	0.00	30.078 
12:30	35.8	35.8	35.8	61	23.7	1	4	45	0.00	30.079 
12:35	36.2	36.2	36.2	62	24.5	1	3	270	0.00	30.079 
12:40	36.0	36.0	36.0	62	24.3	1	3	22	0.00	30.079 
12:45	35.2	35.2	35.2	59	22.3	1	3	338	0.00	30.084 
12:50	35.0	35.0	35.0	63	23.7	1	5	22	0.00	30.084 
12:55	35.6	35.6	35.6	61	23.5	1	4	338	0.00	30.084 
13:00	36.2	36.2	36.2	61	24.1	1	3	68	0.00	30.090 
13:05	36.3	36.3	36.3	62	24.5	1	4	22	0.00	30.090 
13:10	35.9	35.9	35.9	59	23.0	1	4	0	0.00	30.090 
13:15	35.6	35.6	35.6	60	23.1	1	4	22	0.00	30.091 
13:20	35.6	35.6	35.6	58	22.3	1	4	338	0.00	30.091 
13:25	35.8	35.8	35.8	60	23.3	1	5	270	0.00	30.091 
13:30	35.8	35.8	35.8	59	22.9	1	5	270	0.00	30.086 
13:35	35.0	35.0	35.0	58	21.7	2	4	270	0.00	30.086 
13:40	35.5	35.5	35.5	59	22.6	1	3	338	0.00	30.086 
13:45	35.6	35.6	35.6	58	22.3	0	4	338	0.00	30.085 
13:50	36.2	36.2	36.2	59	23.3	1	4	22	0.00	30.085 
13:55	36.2	36.2	36.2	54	21.2	1	4	315	0.00	30.085 
14:00	36.2	36.2	36.2	56	22.0	1	5	90	0.00	30.087 
14:05	36.5	36.5	36.5	53	21.0	1	4	315	0.00	30.087 
14:10	37.2	37.2	37.2	56	23.0	1	7	68	0.00	30.087 
14:15	37.5	37.5	37.5	55	22.8	1	4	338	0.00	30.087 
14:20	37.8	37.8	37.8	57	24.0	1	3	112	0.00	30.087 
14:25	37.8	37.8	37.8	53	22.2	1	4	338	0.00	30.087 
14:30	37.5	37.5	37.5	53	21.9	1	3	315	0.00	30.089 
14:35	37.2	37.2	37.2	53	21.7	1	3	45	0.00	30.089 
14:40	37.6	37.6	37.6	52	21.6	1	2	270	0.00	30.089 
14:45	37.6	37.6	37.6	47	19.2	1	4	112	0.00	30.088 
14:50	37.9	37.9	37.9	52	21.9	1	3	292	0.00	30.088 
14:55	38.3	38.3	38.3	51	21.8	1	5	338	0.00	30.088 
15:00	38.2	38.2	38.2	52	22.1	1	3	270	0.00	30.091 
15:05	38.2	38.2	38.2	47	19.8	1	4	270	0.00	30.091 
15:10	38.2	38.2	38.2	47	19.8	1	3	338	0.00	30.091 
15:15	38.9	38.9	38.9	46	19.9	1	4	225	0.00	30.085 
15:20	38.9	38.9	38.9	47	20.4	1	4	338	0.00	30.085 
15:25	38.3	38.3	38.3	49	20.8	1	3	338	0.00	30.085 
15:30	38.3	38.3	38.3	48	20.4	1	6	270	0.00	30.086 
15:35	38.8	38.8	38.8	47	20.3	2	6	338	0.00	30.086 
15:40	38.6	38.6	38.6	47	20.1	1	4	338	0.00	30.086 
15:45	38.9	38.9	38.9	45	19.4	0	1	22	0.00	30.078 
15:50	39.1	39.1	39.1	48	21.1	2	7	270	0.00	30.078 
15:55	39.2	39.2	39.2	48	21.2	1	3	0	0.00	30.078 
16:00	39.5	39.5	39.5	46	20.5	1	4	315	0.00	30.081 
16:05	39.6	39.6	39.6	46	20.5	1	5	45	0.00	30.081 
16:10	39.6	39.6	39.6	47	21.0	1	2	45	0.00	30.081 
16:15	39.9	39.9	39.9	45	20.3	1	3	45	0.00	30.078 
16:20	39.5	39.5	39.5	46	20.5	2	8	248	0.00	30.078 
16:25	39.3	39.3	39.3	46	20.3	1	4	248	0.00	30.078 
16:30	39.8	39.8	39.8	46	20.7	1	5	270	0.00	30.078 
16:35	40.1	40.1	40.1	45	20.5	1	3	270	0.00	30.078 
16:40	40.1	40.1	40.1	46	21.0	0	2	22	0.00	30.078 
16:45	40.1	40.1	40.1	43	19.4	0	2	22	0.00	30.077 
16:50	40.1	40.1	40.1	42	18.9	1	4	22	0.00	30.077 
16:55	39.8	39.8	39.8	42	18.6	1	5	0	0.00	30.077 
17:00	39.3	39.3	39.3	43	18.7	2	5	270	0.00	30.075 
17:05	39.3	39.3	39.3	44	19.2	1	3	338	0.00	30.075 
17:10	39.5	39.5	39.5	44	19.4	1	4	45	0.00	30.075 
17:15	39.5	39.5	39.5	44	19.4	1	4	45	0.00	30.077 
17:20	39.6	39.6	39.6	43	19.0	1	5	0	0.00	30.077 
17:25	39.5	39.5	39.5	47	21.0	1	3	270	0.00	30.077 
17:30	39.3	39.3	39.3	45	19.8	2	4	0	0.00	30.085 
17:35	39.6	39.6	39.6	45	20.0	1	3	0	0.00	30.085 
17:40	39.6	39.6	39.6	43	19.0	1	3	0	0.00	30.085 
17:45	39.8	39.8	39.8	45	20.2	1	3	270	0.00	30.087 
17:50	39.5	39.5	39.5	42	18.3	1	3	338	0.00	30.087 
17:55	39.2	39.2	39.2	42	18.1	1	4	338	0.00	30.087 
18:00	39.2	39.2	39.2	43	18.6	1	4	338	0.00	30.093 
18:05	39.2	39.2	39.2	45	19.7	1	4	0	0.00	30.093 
18:10	39.2	39.2	39.2	46	20.2	1	5	315	0.00	30.093 
18:15	39.3	39.3	39.3	45	19.8	2	5	338	0.00	30.095 
18:20	39.2	39.2	39.2	45	19.7	1	3	338	0.00	30.095 
18:25	39.1	39.1	39.1	45	19.6	1	5	292	0.00	30.095 
18:30	38.8	38.8	38.8	46	19.8	1	3	338	0.00	30.095 
18:35	38.6	38.6	38.6	46	19.6	1	4	338	0.00	30.095 
18:40	38.5	38.5	38.5	45	19.0	0	2	292	0.00	30.095 
18:45	38.3	38.3	38.3	44	18.3	1	5	292	0.00	30.100 
18:50	38.0	38.0	38.0	45	18.6	1	4	338	0.00	30.100 
18:55	37.8	37.8	37.8	45	18.4	1	3	315	0.00	30.100 
19:00	37.5	37.5	37.5	46	18.6	0	4	270	0.00	30.103 
19:05	37.2	37.2	37.2	48	19.3	0	2	270	0.00	30.103 
19:10	37.0	37.0	37.0	48	19.2	0	2	270	0.00	30.103 
19:15	36.9	36.9	36.9	48	19.1	0	2	0	0.00	30.110 
19:20	36.9	36.9	36.9	49	19.5	1	3	270	0.00	30.110 
19:25	36.9	36.9	36.9	50	20.0	0	0	---	0.00	30.110 
19:30	36.9	36.9	36.9	50	20.0	0	0	---	0.00	30.107 
19:35	36.8	36.8	36.8	51	20.4	0	0	---	0.00	30.107 
19:40	36.6	36.6	36.6	52	20.7	0	2	112	0.00	30.107 
19:45	36.6	36.6	36.6	51	20.2	0	1	112	0.00	30.108 
19:50	36.6	36.6	36.6	51	20.2	0	2	22	0.00	30.108 
19:55	36.5	36.5	36.5	51	20.1	0	1	22	0.00	30.108 
20:00	36.5	36.5	36.5	50	19.6	0	2	22	0.00	30.108 
20:05	36.5	36.5	36.5	50	19.6	0	2	22	0.00	30.108 
20:10	36.3	36.3	36.3	50	19.5	0	1	22	0.00	30.108 
20:15	36.3	36.3	36.3	51	19.9	0	1	22	0.00	30.109 
20:20	36.3	36.3	36.3	51	19.9	0	2	22	0.00	30.109 
20:25	36.2	36.2	36.2	51	19.8	0	3	22	0.00	30.109 
20:30	36.2	36.2	36.2	51	19.8	0	2	248	0.00	30.108 
20:35	36.2	36.2	36.2	52	20.3	0	1	248	0.00	30.108 
20:40	36.0	36.0	36.0	51	19.6	0	2	248	0.00	30.108 
20:45	35.9	35.9	35.9	50	19.1	0	3	248	0.00	30.104 
20:50	35.9	35.9	35.9	50	19.1	0	2	248	0.00	30.104 
20:55	35.6	35.6	35.6	50	18.8	0	3	22	0.00	30.104 
21:00	35.5	35.5	35.5	50	18.7	0	2	22	0.00	30.105 
21:05	35.2	35.2	35.2	50	18.4	0	1	22	0.00	30.105 
21:10	34.9	34.9	34.9	50	18.2	0	2	22	0.00	30.105 
21:15	34.7	34.7	34.7	51	18.4	0	0	---	0.00	30.106 
21:20	34.4	34.4	34.4	53	19.1	0	0	---	0.00	30.106 
21:25	34.1	34.1	34.1	54	19.2	0	1	22	0.00	30.106 
21:30	33.7	33.7	33.7	55	19.3	0	2	22	0.00	30.114 
21:35	33.5	33.5	33.5	56	19.5	1	3	292	0.00	30.114 
21:40	33.2	33.2	33.2	56	19.2	0	3	270	0.00	30.114 
21:45	33.1	33.1	33.1	57	19.5	1	3	270	0.00	30.114 
21:50	32.8	32.8	32.8	58	19.7	0	2	270	0.00	30.114 
21:55	32.5	32.5	32.5	59	19.8	0	2	270	0.00	30.114 
22:00	32.2	32.2	32.2	60	19.9	0	1	270	0.00	30.115 
22:05	31.9	31.9	31.9	61	20.0	0	1	270	0.00	30.115 
22:10	31.8	31.8	31.8	62	20.3	0	2	270	0.00	30.115 
22:15	31.5	31.5	31.5	62	20.0	0	0	---	0.00	30.115 
22:20	31.3	31.3	31.3	62	19.8	0	0	---	0.00	30.115 
22:25	31.2	31.2	31.2	63	20.1	0	0	---	0.00	30.115 
22:30	30.9	30.9	30.9	64	20.2	0	1	270	0.00	30.118 
22:35	30.7	30.7	30.7	64	20.0	0	2	270	0.00	30.118 
22:40	30.6	30.6	30.6	64	19.9	0	2	270	0.00	30.118 
22:45	30.4	30.4	30.4	64	19.7	0	1	270	0.00	30.119 
22:50	30.3	30.3	30.3	64	19.6	0	0	---	0.00	30.119 
22:55	30.1	30.1	30.1	65	19.8	0	1	270	0.00	30.119 
23:00	30.0	30.0	30.0	65	19.7	0	1	270	0.00	30.120 
23:05	30.0	30.0	30.0	65	19.7	0	1	270	0.00	30.120 
23:10	29.8	29.8	29.8	65	19.5	0	2	270	0.00	30.120 
23:15	29.8	29.8	29.8	65	19.5	0	2	270	0.00	30.122 
23:20	29.7	29.7	29.7	65	19.4	0	2	270	0.00	30.122 
23:25	29.7	29.7	29.7	65	19.4	0	1	270	0.00	30.122 
23:30	29.5	29.5	29.5	66	19.6	0	1	270	0.00	30.122 
23:35	29.4	29.4	29.4	67	19.8	0	2	270	0.00	30.122 
23:40	29.3	29.3	29.3	67	19.7	0	1	270	0.00	30.122 
23:45	29.0	29.0	29.0	68	19.8	0	1	270	0.00	30.120 
23:50	28.8	28.8	28.8	69	19.9	0	1	270	0.00	30.120 
23:55	28.7	28.7	28.7	69	19.8	0	1	270	0.00	30.120 

CoCoRaHS
IN-AL-39
A2 Web Hosting
Creative Commons License
GoDaddy
search engine by freefind advanced

loaded 2018-11-15 16:50:57 • last modified 2010-11-18 10:43:29
Privacy PolicyDisclaimer
• wx.awcolley.com is powered by PmWiki v.2002016 •
• all content (unless otherwise noted) © 2018 A W Colley